sensor_id;sensor_type;location;lat;lon;timestamp;pressure;altitude;pressure_sealevel;temperature;humidity
39435;BME280;66825;51.880;-0.518;2023-08-12T00:00:49;100474.28;;;22.47;47.95
39435;BME280;66825;51.880;-0.518;2023-08-12T00:03:15;100483.94;;;22.53;48.10
39435;BME280;66825;51.880;-0.518;2023-08-12T00:05:41;100575.75;;;23.16;47.91
39435;BME280;66825;51.880;-0.518;2023-08-12T00:08:08;100583.16;;;23.24;48.02
39435;BME280;66825;51.880;-0.518;2023-08-12T00:10:34;100488.44;;;22.58;47.99
39435;BME280;66825;51.880;-0.518;2023-08-12T00:12:59;100528.16;;;22.82;48.04
39435;BME280;66825;51.880;-0.518;2023-08-12T00:15:25;100598.16;;;23.27;47.97
39435;BME280;66825;51.880;-0.518;2023-08-12T00:17:50;100598.50;;;23.25;47.76
39435;BME280;66825;51.880;-0.518;2023-08-12T00:20:16;100586.25;;;23.23;47.84
39435;BME280;66825;51.880;-0.518;2023-08-12T00:22:42;100582.34;;;23.24;47.91
39435;BME280;66825;51.880;-0.518;2023-08-12T00:25:08;100467.66;;;22.48;47.80
39435;BME280;66825;51.880;-0.518;2023-08-12T00:27:34;100552.44;;;23.01;47.89
39435;BME280;66825;51.880;-0.518;2023-08-12T00:29:59;100478.72;;;22.61;47.86
39435;BME280;66825;51.880;-0.518;2023-08-12T00:32:25;100572.38;;;23.19;47.74
39435;BME280;66825;51.880;-0.518;2023-08-12T00:34:50;100580.75;;;23.23;47.93
39435;BME280;66825;51.880;-0.518;2023-08-12T00:37:16;100581.88;;;23.22;47.93
39435;BME280;66825;51.880;-0.518;2023-08-12T00:39:41;100472.94;;;22.53;47.81
39435;BME280;66825;51.880;-0.518;2023-08-12T00:42:07;100574.78;;;23.21;47.86
39435;BME280;66825;51.880;-0.518;2023-08-12T00:44:32;100569.63;;;23.19;47.97
39435;BME280;66825;51.880;-0.518;2023-08-12T00:46:58;100567.66;;;23.20;48.07
39435;BME280;66825;51.880;-0.518;2023-08-12T00:49:23;100362.28;;;21.89;47.81
39435;BME280;66825;51.880;-0.518;2023-08-12T00:51:50;100531.59;;;23.00;48.00
39435;BME280;66825;51.880;-0.518;2023-08-12T00:54:16;100539.75;;;23.09;47.82
39435;BME280;66825;51.880;-0.518;2023-08-12T00:56:42;100488.50;;;22.71;47.96
39435;BME280;66825;51.880;-0.518;2023-08-12T00:59:08;100547.06;;;23.05;47.90
39435;BME280;66825;51.880;-0.518;2023-08-12T01:01:35;100459.56;;;22.52;47.89
39435;BME280;66825;51.880;-0.518;2023-08-12T01:04:00;100525.97;;;22.96;47.93
39435;BME280;66825;51.880;-0.518;2023-08-12T01:06:26;100557.31;;;23.16;47.82
39435;BME280;66825;51.880;-0.518;2023-08-12T01:08:52;100552.97;;;23.15;47.91
39435;BME280;66825;51.880;-0.518;2023-08-12T01:11:21;100554.09;;;23.14;47.92
39435;BME280;66825;51.880;-0.518;2023-08-12T01:16:50;100556.03;;;23.14;47.92
39435;BME280;66825;51.880;-0.518;2023-08-12T01:19:35;100556.03;;;23.14;47.79
39435;BME280;66825;51.880;-0.518;2023-08-12T01:22:03;100546.03;;;23.09;47.73
39435;BME280;66825;51.880;-0.518;2023-08-12T01:24:39;100551.53;;;23.09;47.89
39435;BME280;66825;51.880;-0.518;2023-08-12T01:27:06;100518.72;;;22.92;47.97
39435;BME280;66825;51.880;-0.518;2023-08-12T01:29:33;100537.00;;;23.09;47.87
39435;BME280;66825;51.880;-0.518;2023-08-12T01:32:08;100541.38;;;23.10;47.79
39435;BME280;66825;51.880;-0.518;2023-08-12T01:34:42;100542.38;;;23.05;47.80
39435;BME280;66825;51.880;-0.518;2023-08-12T01:37:12;100430.72;;;22.37;47.88
39435;BME280;66825;51.880;-0.518;2023-08-12T01:39:38;100507.25;;;22.90;47.74
39435;BME280;66825;51.880;-0.518;2023-08-12T01:42:05;100540.88;;;23.08;47.84
39435;BME280;66825;51.880;-0.518;2023-08-12T01:44:31;100413.84;;;22.26;47.83
39435;BME280;66825;51.880;-0.518;2023-08-12T01:46:57;100537.34;;;23.07;47.81
39435;BME280;66825;51.880;-0.518;2023-08-12T01:49:22;100549.47;;;23.06;47.90
39435;BME280;66825;51.880;-0.518;2023-08-12T01:51:49;100557.72;;;23.06;48.01
39435;BME280;66825;51.880;-0.518;2023-08-12T01:54:15;100430.13;;;22.31;47.83
39435;BME280;66825;51.880;-0.518;2023-08-12T01:56:40;100533.00;;;23.06;47.84
39435;BME280;66825;51.880;-0.518;2023-08-12T01:59:05;100514.00;;;22.92;47.91
39435;BME280;66825;51.880;-0.518;2023-08-12T02:01:31;100533.19;;;23.01;47.92
39435;BME280;66825;51.880;-0.518;2023-08-12T02:03:56;100531.25;;;23.02;47.73
39435;BME280;66825;51.880;-0.518;2023-08-12T02:06:22;100539.97;;;23.04;47.82
39435;BME280;66825;51.880;-0.518;2023-08-12T02:08:47;100526.53;;;23.02;47.84
39435;BME280;66825;51.880;-0.518;2023-08-12T02:11:13;100527.38;;;23.03;47.82
39435;BME280;66825;51.880;-0.518;2023-08-12T02:13:38;100532.03;;;23.02;47.83
39435;BME280;66825;51.880;-0.518;2023-08-12T02:16:04;100319.63;;;21.71;47.70
39435;BME280;66825;51.880;-0.518;2023-08-12T02:18:29;100315.94;;;21.67;47.59
39435;BME280;66825;51.880;-0.518;2023-08-12T02:20:54;100423.31;;;22.37;47.68
39435;BME280;66825;51.880;-0.518;2023-08-12T02:23:20;100521.25;;;22.97;47.83
39435;BME280;66825;51.880;-0.518;2023-08-12T02:25:46;100514.97;;;22.96;47.81
39435;BME280;66825;51.880;-0.518;2023-08-12T02:28:12;100519.00;;;22.99;47.69
39435;BME280;66825;51.880;-0.518;2023-08-12T02:30:37;100529.97;;;22.99;48.08
39435;BME280;66825;51.880;-0.518;2023-08-12T02:33:03;100524.47;;;22.99;47.67
39435;BME280;66825;51.880;-0.518;2023-08-12T02:35:28;100509.34;;;22.93;47.81
39435;BME280;66825;51.880;-0.518;2023-08-12T02:37:54;100406.75;;;22.25;47.87
39435;BME280;66825;51.880;-0.518;2023-08-12T02:40:19;100317.56;;;21.68;47.54
39435;BME280;66825;51.880;-0.518;2023-08-12T02:42:45;100518.50;;;22.97;47.89
39435;BME280;66825;51.880;-0.518;2023-08-12T02:45:10;100314.69;;;21.64;47.73
39435;BME280;66825;51.880;-0.518;2023-08-12T02:47:36;100409.16;;;22.27;47.81
39435;BME280;66825;51.880;-0.518;2023-08-12T02:50:01;100495.53;;;22.80;47.84
39435;BME280;66825;51.880;-0.518;2023-08-12T02:52:27;100507.88;;;22.95;47.74
39435;BME280;66825;51.880;-0.518;2023-08-12T02:54:53;100403.41;;;22.19;47.79
39435;BME280;66825;51.880;-0.518;2023-08-12T02:57:20;100504.72;;;22.84;47.91
39435;BME280;66825;51.880;-0.518;2023-08-12T02:59:45;100511.75;;;22.94;47.88
39435;BME280;66825;51.880;-0.518;2023-08-12T03:02:11;100485.22;;;22.77;47.88
39435;BME280;66825;51.880;-0.518;2023-08-12T03:04:36;100514.00;;;22.92;47.83
39435;BME280;66825;51.880;-0.518;2023-08-12T03:07:02;100514.84;;;22.93;47.62
39435;BME280;66825;51.880;-0.518;2023-08-12T03:09:28;100509.66;;;22.91;47.65
39435;BME280;66825;51.880;-0.518;2023-08-12T03:11:54;100372.19;;;22.03;47.73
39435;BME280;66825;51.880;-0.518;2023-08-12T03:14:19;100513.22;;;22.92;47.87
39435;BME280;66825;51.880;-0.518;2023-08-12T03:16:44;100510.81;;;22.90;47.78
39435;BME280;66825;51.880;-0.518;2023-08-12T03:19:10;100428.47;;;22.39;47.92
39435;BME280;66825;51.880;-0.518;2023-08-12T03:21:36;100391.94;;;22.17;47.75
39435;BME280;66825;51.880;-0.518;2023-08-12T03:24:02;100441.81;;;22.49;47.85
39435;BME280;66825;51.880;-0.518;2023-08-12T03:26:28;100397.56;;;22.21;47.77
39435;BME280;66825;51.880;-0.518;2023-08-12T03:28:53;100511.97;;;22.89;47.93
39435;BME280;66825;51.880;-0.518;2023-08-12T03:31:18;100504.03;;;22.88;47.80
39435;BME280;66825;51.880;-0.518;2023-08-12T03:33:44;100499.34;;;22.88;47.79
39435;BME280;66825;51.880;-0.518;2023-08-12T03:36:09;100495.34;;;22.86;47.54
39435;BME280;66825;51.880;-0.518;2023-08-12T03:38:35;100494.22;;;22.87;47.63
39435;BME280;66825;51.880;-0.518;2023-08-12T03:41:02;100286.00;;;21.53;47.96
39435;BME280;66825;51.880;-0.518;2023-08-12T03:43:28;100478.47;;;22.75;47.62
39435;BME280;66825;51.880;-0.518;2023-08-12T03:45:53;100500.84;;;22.86;47.80
39435;BME280;66825;51.880;-0.518;2023-08-12T03:48:18;100492.59;;;22.86;47.93
39435;BME280;66825;51.880;-0.518;2023-08-12T03:50:44;100422.34;;;22.33;47.80
39435;BME280;66825;51.880;-0.518;2023-08-12T03:53:12;100489.84;;;22.86;47.81
39435;BME280;66825;51.880;-0.518;2023-08-12T03:55:37;100490.16;;;22.84;47.76
39435;BME280;66825;51.880;-0.518;2023-08-12T03:58:03;100492.91;;;22.84;47.82
39435;BME280;66825;51.880;-0.518;2023-08-12T04:00:29;100484.66;;;22.84;47.85
39435;BME280;66825;51.880;-0.518;2023-08-12T04:02:54;100485.84;;;22.83;47.86
39435;BME280;66825;51.880;-0.518;2023-08-12T04:05:20;100468.47;;;22.70;47.88
39435;BME280;66825;51.880;-0.518;2023-08-12T04:07:46;100379.09;;;22.09;47.67
39435;BME280;66825;51.880;-0.518;2023-08-12T04:10:13;100490.50;;;22.82;47.94
39435;BME280;66825;51.880;-0.518;2023-08-12T04:12:40;100477.63;;;22.74;47.84
39435;BME280;66825;51.880;-0.518;2023-08-12T04:15:07;100407.34;;;22.31;47.92
39435;BME280;66825;51.880;-0.518;2023-08-12T04:17:32;100378.88;;;22.14;47.82
39435;BME280;66825;51.880;-0.518;2023-08-12T04:19:58;100376.69;;;22.08;47.88
39435;BME280;66825;51.880;-0.518;2023-08-12T04:22:23;100480.22;;;22.79;47.62
39435;BME280;66825;51.880;-0.518;2023-08-12T04:24:49;100462.38;;;22.64;47.93
39435;BME280;66825;51.880;-0.518;2023-08-12T04:27:14;100463.50;;;22.63;47.98
39435;BME280;66825;51.880;-0.518;2023-08-12T04:29:42;100460.25;;;22.70;48.00
39435;BME280;66825;51.880;-0.518;2023-08-12T04:32:07;100439.94;;;22.62;47.85
39435;BME280;66825;51.880;-0.518;2023-08-12T04:34:33;100459.56;;;22.73;47.89
39435;BME280;66825;51.880;-0.518;2023-08-12T04:36:58;100459.38;;;22.78;47.97
39435;BME280;66825;51.880;-0.518;2023-08-12T04:39:24;100470.66;;;22.77;47.90
39435;BME280;66825;51.880;-0.518;2023-08-12T04:41:50;100455.00;;;22.77;47.91
39435;BME280;66825;51.880;-0.518;2023-08-12T04:44:16;100454.19;;;22.77;47.98
39435;BME280;66825;51.880;-0.518;2023-08-12T04:46:41;100447.91;;;22.76;47.97
39435;BME280;66825;51.880;-0.518;2023-08-12T04:49:07;100442.41;;;22.76;48.05
39435;BME280;66825;51.880;-0.518;2023-08-12T04:51:33;100448.69;;;22.77;48.06
39435;BME280;66825;51.880;-0.518;2023-08-12T04:53:59;100440.00;;;22.75;48.02
39435;BME280;66825;51.880;-0.518;2023-08-12T04:56:26;100447.13;;;22.76;47.97
39435;BME280;66825;51.880;-0.518;2023-08-12T04:58:54;100321.22;;;22.02;47.97
39435;BME280;66825;51.880;-0.518;2023-08-12T05:01:20;100443.06;;;22.73;48.04
39435;BME280;66825;51.880;-0.518;2023-08-12T05:03:45;100436.66;;;22.69;48.03
39435;BME280;66825;51.880;-0.518;2023-08-12T05:06:10;100416.13;;;22.54;48.05
39435;BME280;66825;51.880;-0.518;2023-08-12T05:08:36;100432.78;;;22.70;47.95
39435;BME280;66825;51.880;-0.518;2023-08-12T05:11:01;100429.34;;;22.73;48.03
39435;BME280;66825;51.880;-0.518;2023-08-12T05:13:27;100431.31;;;22.73;48.20
39435;BME280;66825;51.880;-0.518;2023-08-12T05:15:53;100427.28;;;22.70;47.96
39435;BME280;66825;51.880;-0.518;2023-08-12T05:18:21;100444.25;;;22.72;48.14
39435;BME280;66825;51.880;-0.518;2023-08-12T05:20:51;100434.38;;;22.71;48.04
39435;BME280;66825;51.880;-0.518;2023-08-12T05:23:16;100415.44;;;22.57;48.16
39435;BME280;66825;51.880;-0.518;2023-08-12T05:25:42;100431.16;;;22.69;48.05
39435;BME280;66825;51.880;-0.518;2023-08-12T05:28:07;100434.38;;;22.71;48.14
39435;BME280;66825;51.880;-0.518;2023-08-12T05:30:33;100422.31;;;22.63;48.00
39435;BME280;66825;51.880;-0.518;2023-08-12T05:32:59;100437.00;;;22.67;48.11
39435;BME280;66825;51.880;-0.518;2023-08-12T05:35:24;100317.06;;;21.96;48.01
39435;BME280;66825;51.880;-0.518;2023-08-12T05:37:50;100431.97;;;22.69;48.14
39435;BME280;66825;51.880;-0.518;2023-08-12T05:40:15;100425.06;;;22.63;48.15
39435;BME280;66825;51.880;-0.518;2023-08-12T05:42:41;100395.03;;;22.46;47.95
39435;BME280;66825;51.880;-0.518;2023-08-12T05:45:07;100281.72;;;21.73;48.07
39435;BME280;66825;51.880;-0.518;2023-08-12T05:47:33;100448.78;;;22.68;48.06
39435;BME280;66825;51.880;-0.518;2023-08-12T05:49:58;100435.03;;;22.68;48.17
39435;BME280;66825;51.880;-0.518;2023-08-12T05:52:23;100338.94;;;22.04;48.11
39435;BME280;66825;51.880;-0.518;2023-08-12T05:54:49;100335.06;;;22.05;47.94
39435;BME280;66825;51.880;-0.518;2023-08-12T05:57:14;100435.41;;;22.66;48.15
39435;BME280;66825;51.880;-0.518;2023-08-12T05:59:40;100314.53;;;21.91;48.11
39435;BME280;66825;51.880;-0.518;2023-08-12T06:02:05;100309.81;;;21.91;48.21
39435;BME280;66825;51.880;-0.518;2023-08-12T06:04:31;100429.91;;;22.66;48.08
39435;BME280;66825;51.880;-0.518;2023-08-12T06:06:57;100375.03;;;22.36;48.21
39435;BME280;66825;51.880;-0.518;2023-08-12T06:09:22;100416.50;;;22.65;48.07
39435;BME280;66825;51.880;-0.518;2023-08-12T06:11:48;100412.94;;;22.64;48.08
39435;BME280;66825;51.880;-0.518;2023-08-12T06:14:13;100416.38;;;22.61;48.18
39435;BME280;66825;51.880;-0.518;2023-08-12T06:16:39;100419.56;;;22.63;48.24
39435;BME280;66825;51.880;-0.518;2023-08-12T06:19:04;100289.75;;;21.78;48.03
39435;BME280;66825;51.880;-0.518;2023-08-12T06:21:30;100418.31;;;22.61;48.13
39435;BME280;66825;51.880;-0.518;2023-08-12T06:23:55;100420.41;;;22.64;48.09
39435;BME280;66825;51.880;-0.518;2023-08-12T06:26:21;100412.47;;;22.62;48.20
39435;BME280;66825;51.880;-0.518;2023-08-12T06:28:47;100420.72;;;22.62;48.08
39435;BME280;66825;51.880;-0.518;2023-08-12T06:31:12;100419.91;;;22.62;47.92
39435;BME280;66825;51.880;-0.518;2023-08-12T06:33:37;100422.66;;;22.62;48.17
39435;BME280;66825;51.880;-0.518;2023-08-12T06:36:03;100404.53;;;22.48;48.07
39435;BME280;66825;51.880;-0.518;2023-08-12T06:38:29;100316.78;;;21.88;48.17
39435;BME280;66825;51.880;-0.518;2023-08-12T06:40:54;100429.28;;;22.61;48.18
39435;BME280;66825;51.880;-0.518;2023-08-12T06:43:20;100445.75;;;22.61;48.14
39435;BME280;66825;51.880;-0.518;2023-08-12T06:45:45;100317.19;;;21.99;48.12
39435;BME280;66825;51.880;-0.518;2023-08-12T06:48:11;100416.56;;;22.56;48.24
39435;BME280;66825;51.880;-0.518;2023-08-12T06:50:36;100311.94;;;21.85;48.25
39435;BME280;66825;51.880;-0.518;2023-08-12T06:53:01;100329.66;;;21.97;48.22
39435;BME280;66825;51.880;-0.518;2023-08-12T06:55:27;100423.31;;;22.59;48.24
39435;BME280;66825;51.880;-0.518;2023-08-12T06:57:52;100424.50;;;22.58;48.26
39435;BME280;66825;51.880;-0.518;2023-08-12T07:00:18;100420.56;;;22.59;48.21
39435;BME280;66825;51.880;-0.518;2023-08-12T07:02:43;100419.00;;;22.58;48.26
39435;BME280;66825;51.880;-0.518;2023-08-12T07:05:09;100309.06;;;21.82;48.13
39435;BME280;66825;51.880;-0.518;2023-08-12T07:07:35;100426.41;;;22.57;48.17
39435;BME280;66825;51.880;-0.518;2023-08-12T07:10:00;100431.13;;;22.57;48.33
39435;BME280;66825;51.880;-0.518;2023-08-12T07:12:26;100224.91;;;21.22;48.05
39435;BME280;66825;51.880;-0.518;2023-08-12T07:14:52;100415.50;;;22.48;48.26
39435;BME280;66825;51.880;-0.518;2023-08-12T07:17:17;100355.34;;;22.13;48.22
39435;BME280;66825;51.880;-0.518;2023-08-12T07:19:42;100433.84;;;22.57;48.23
39435;BME280;66825;51.880;-0.518;2023-08-12T07:22:08;100409.88;;;22.45;48.28
39435;BME280;66825;51.880;-0.518;2023-08-12T07:24:33;100296.69;;;21.76;48.36
39435;BME280;66825;51.880;-0.518;2023-08-12T07:26:59;100416.91;;;22.55;48.20
39435;BME280;66825;51.880;-0.518;2023-08-12T07:29:24;100425.16;;;22.55;48.23
39435;BME280;66825;51.880;-0.518;2023-08-12T07:31:51;100413.09;;;22.47;48.30
39435;BME280;66825;51.880;-0.518;2023-08-12T07:34:17;100417.13;;;22.49;48.13
39435;BME280;66825;51.880;-0.518;2023-08-12T07:36:42;100415.28;;;22.53;48.20
39435;BME280;66825;51.880;-0.518;2023-08-12T07:39:08;100385.06;;;22.32;48.20
39435;BME280;66825;51.880;-0.518;2023-08-12T07:41:33;100411.75;;;22.53;48.28
39435;BME280;66825;51.880;-0.518;2023-08-12T07:43:59;100408.88;;;22.49;48.18
39435;BME280;66825;51.880;-0.518;2023-08-12T07:46:24;100406.28;;;22.53;48.27
39435;BME280;66825;51.880;-0.518;2023-08-12T07:48:50;100410.94;;;22.52;48.20
39435;BME280;66825;51.880;-0.518;2023-08-12T07:51:15;100290.56;;;21.79;48.26
39435;BME280;66825;51.880;-0.518;2023-08-12T07:53:41;100291.03;;;21.81;48.24
39435;BME280;66825;51.880;-0.518;2023-08-12T07:56:06;100408.53;;;22.51;48.14
39435;BME280;66825;51.880;-0.518;2023-08-12T07:58:31;100412.06;;;22.51;48.33
39435;BME280;66825;51.880;-0.518;2023-08-12T08:00:57;100409.31;;;22.51;48.07
39435;BME280;66825;51.880;-0.518;2023-08-12T08:03:22;100332.03;;;21.98;48.25
39435;BME280;66825;51.880;-0.518;2023-08-12T08:05:48;100428.88;;;22.50;48.23
39435;BME280;66825;51.880;-0.518;2023-08-12T08:08:14;100412.50;;;22.41;48.24
39435;BME280;66825;51.880;-0.518;2023-08-12T08:10:39;100413.25;;;22.50;48.29
39435;BME280;66825;51.880;-0.518;2023-08-12T08:13:05;100397.50;;;22.39;48.34
39435;BME280;66825;51.880;-0.518;2023-08-12T08:15:30;100417.13;;;22.49;48.24
39435;BME280;66825;51.880;-0.518;2023-08-12T08:17:56;100292.22;;;21.71;48.20
39435;BME280;66825;51.880;-0.518;2023-08-12T08:20:21;100408.06;;;22.49;48.32
39435;BME280;66825;51.880;-0.518;2023-08-12T08:22:47;100205.44;;;21.15;48.30
39435;BME280;66825;51.880;-0.518;2023-08-12T08:25:12;100410.34;;;22.47;48.23
39435;BME280;66825;51.880;-0.518;2023-08-12T08:27:38;100387.81;;;22.32;48.27
39435;BME280;66825;51.880;-0.518;2023-08-12T08:30:05;100308.63;;;21.80;48.30
39435;BME280;66825;51.880;-0.518;2023-08-12T08:32:31;100414.69;;;22.48;48.23
39435;BME280;66825;51.880;-0.518;2023-08-12T08:34:56;100413.91;;;22.47;48.43
39435;BME280;66825;51.880;-0.518;2023-08-12T08:37:22;100409.88;;;22.45;48.27
39435;BME280;66825;51.880;-0.518;2023-08-12T08:39:47;100387.34;;;22.30;48.29
39435;BME280;66825;51.880;-0.518;2023-08-12T08:42:15;100407.63;;;22.47;48.37
39435;BME280;66825;51.880;-0.518;2023-08-12T08:44:41;100290.28;;;21.71;48.26
39435;BME280;66825;51.880;-0.518;2023-08-12T08:47:08;100411.00;;;22.44;48.35
39435;BME280;66825;51.880;-0.518;2023-08-12T08:49:34;100403.00;;;22.39;48.25
39435;BME280;66825;51.880;-0.518;2023-08-12T08:52:00;100409.53;;;22.46;48.26
39435;BME280;66825;51.880;-0.518;2023-08-12T08:54:26;100412.28;;;22.46;48.33
39435;BME280;66825;51.880;-0.518;2023-08-12T08:56:52;100373.94;;;22.29;48.35
39435;BME280;66825;51.880;-0.518;2023-08-12T08:59:17;100308.75;;;21.83;48.35
39435;BME280;66825;51.880;-0.518;2023-08-12T09:01:44;100407.44;;;22.43;48.25
39435;BME280;66825;51.880;-0.518;2023-08-12T09:04:13;100413.41;;;22.45;48.34
39435;BME280;66825;51.880;-0.518;2023-08-12T09:06:41;100401.66;;;22.45;48.32
39435;BME280;66825;51.880;-0.518;2023-08-12T09:09:10;100399.56;;;22.42;48.25
39435;BME280;66825;51.880;-0.518;2023-08-12T09:11:38;100389.88;;;22.35;48.25
39435;BME280;66825;51.880;-0.518;2023-08-12T09:14:04;100360.28;;;22.20;48.43
39435;BME280;66825;51.880;-0.518;2023-08-12T09:16:30;100391.31;;;22.42;48.27
39435;BME280;66825;51.880;-0.518;2023-08-12T09:18:56;100383.13;;;22.33;48.42
39435;BME280;66825;51.880;-0.518;2023-08-12T09:21:21;100378.78;;;22.32;48.29
39435;BME280;66825;51.880;-0.518;2023-08-12T09:23:47;100382.94;;;22.38;48.29
39435;BME280;66825;51.880;-0.518;2023-08-12T09:26:14;100391.66;;;22.40;48.36
39435;BME280;66825;51.880;-0.518;2023-08-12T09:28:41;100392.94;;;22.43;48.42
39435;BME280;66825;51.880;-0.518;2023-08-12T09:31:07;100358.81;;;22.23;48.39
39435;BME280;66825;51.880;-0.518;2023-08-12T09:33:38;100267.47;;;21.58;48.48
39435;BME280;66825;51.880;-0.518;2023-08-12T09:36:04;100403.13;;;22.42;48.44
39435;BME280;66825;51.880;-0.518;2023-08-12T09:38:30;100404.25;;;22.41;48.40
39435;BME280;66825;51.880;-0.518;2023-08-12T09:40:56;100404.56;;;22.40;48.39
39435;BME280;66825;51.880;-0.518;2023-08-12T09:43:27;100397.00;;;22.36;48.37
39435;BME280;66825;51.880;-0.518;2023-08-12T09:45:56;100361.63;;;22.14;48.49
39435;BME280;66825;51.880;-0.518;2023-08-12T09:48:22;100400.25;;;22.39;48.46
39435;BME280;66825;51.880;-0.518;2023-08-12T09:50:49;100385.41;;;22.31;48.34
39435;BME280;66825;51.880;-0.518;2023-08-12T09:53:15;100277.56;;;21.67;48.38
39435;BME280;66825;51.880;-0.518;2023-08-12T09:55:42;100394.41;;;22.40;48.45
39435;BME280;66825;51.880;-0.518;2023-08-12T09:58:09;100393.28;;;22.32;48.37
39435;BME280;66825;51.880;-0.518;2023-08-12T10:00:35;100404.56;;;22.40;48.58
39435;BME280;66825;51.880;-0.518;2023-08-12T10:03:01;100285.66;;;21.63;48.45
39435;BME280;66825;51.880;-0.518;2023-08-12T10:05:28;100380.91;;;22.26;48.39
39435;BME280;66825;51.880;-0.518;2023-08-12T10:07:56;100398.28;;;22.39;48.55
39435;BME280;66825;51.880;-0.518;2023-08-12T10:10:22;100408.47;;;22.39;48.54
39435;BME280;66825;51.880;-0.518;2023-08-12T10:12:51;100399.06;;;22.40;48.38
39435;BME280;66825;51.880;-0.518;2023-08-12T10:15:16;100205.16;;;21.08;48.50
39435;BME280;66825;51.880;-0.518;2023-08-12T10:17:43;100195.19;;;21.03;48.42
39435;BME280;66825;51.880;-0.518;2023-08-12T10:20:12;100381.72;;;22.27;48.58
39435;BME280;66825;51.880;-0.518;2023-08-12T10:22:39;100391.38;;;22.33;48.37
39435;BME280;66825;51.880;-0.518;2023-08-12T10:25:07;100375.63;;;22.21;48.62
39435;BME280;66825;51.880;-0.518;2023-08-12T10:27:33;100311.94;;;21.85;48.39
39435;BME280;66825;51.880;-0.518;2023-08-12T10:29:59;100332.44;;;21.88;48.45
39435;BME280;66825;51.880;-0.518;2023-08-12T10:32:25;100326.06;;;21.96;48.51
39435;BME280;66825;51.880;-0.518;2023-08-12T10:34:54;100393.91;;;22.38;48.57
39435;BME280;66825;51.880;-0.518;2023-08-12T10:37:23;100414.25;;;22.37;48.49
39435;BME280;66825;51.880;-0.518;2023-08-12T10:39:50;100407.97;;;22.36;48.41
39435;BME280;66825;51.880;-0.518;2023-08-12T10:45:11;100372.28;;;22.36;48.49
39435;BME280;66825;51.880;-0.518;2023-08-12T10:48:26;100358.81;;;22.23;48.54
39435;BME280;66825;51.880;-0.518;2023-08-12T10:50:27;100351.00;;;22.12;48.53
39435;BME280;66825;51.880;-0.518;2023-08-12T10:52:53;100371.47;;;22.36;48.62
39435;BME280;66825;51.880;-0.518;2023-08-12T10:55:26;100383.13;;;22.33;48.58
39435;BME280;66825;51.880;-0.518;2023-08-12T10:57:54;100273.16;;;21.74;48.60
39435;BME280;66825;51.880;-0.518;2023-08-12T11:00:23;100369.06;;;22.34;48.50
39435;BME280;66825;51.880;-0.518;2023-08-12T11:02:50;100372.63;;;22.35;48.74
39435;BME280;66825;51.880;-0.518;2023-08-12T11:05:17;100259.22;;;21.58;48.47
39435;BME280;66825;51.880;-0.518;2023-08-12T11:07:48;100367.16;;;22.35;48.67
39435;BME280;66825;51.880;-0.518;2023-08-12T11:10:25;100369.88;;;22.35;48.33
39435;BME280;66825;51.880;-0.518;2023-08-12T11:12:55;100331.81;;;22.12;48.44
39435;BME280;66825;51.880;-0.518;2023-08-12T11:15:40;100278.31;;;21.76;48.60
39435;BME280;66825;51.880;-0.518;2023-08-12T11:18:14;100341.28;;;22.15;48.56
39435;BME280;66825;51.880;-0.518;2023-08-12T11:20:40;100363.78;;;22.29;48.58
39435;BME280;66825;51.880;-0.518;2023-08-12T11:23:07;100351.28;;;22.19;48.50
39435;BME280;66825;51.880;-0.518;2023-08-12T11:25:35;100383.13;;;22.33;48.83
39435;BME280;66825;51.880;-0.518;2023-08-12T11:28:01;100399.59;;;22.33;48.56
39435;BME280;66825;51.880;-0.518;2023-08-12T11:30:27;100378.78;;;22.32;48.57
39435;BME280;66825;51.880;-0.518;2023-08-12T11:32:54;100370.53;;;22.32;48.51
39435;BME280;66825;51.880;-0.518;2023-08-12T11:35:21;100345.78;;;22.19;48.63
39435;BME280;66825;51.880;-0.518;2023-08-12T11:37:52;100359.91;;;22.30;48.62
39435;BME280;66825;51.880;-0.518;2023-08-12T11:40:19;100330.19;;;22.11;48.48
39435;BME280;66825;51.880;-0.518;2023-08-12T11:42:46;100367.00;;;22.31;48.60
39435;BME280;66825;51.880;-0.518;2023-08-12T11:45:14;100238.44;;;21.57;48.55
39435;BME280;66825;51.880;-0.518;2023-08-12T11:47:40;100351.19;;;22.28;48.66
39435;BME280;66825;51.880;-0.518;2023-08-12T11:50:10;100347.81;;;22.31;48.65
39435;BME280;66825;51.880;-0.518;2023-08-12T11:52:36;100312.91;;;22.11;48.70
39435;BME280;66825;51.880;-0.518;2023-08-12T11:55:03;100243.06;;;21.66;48.58
39435;BME280;66825;51.880;-0.518;2023-08-12T11:57:28;100132.25;;;20.94;48.59
39435;BME280;66825;51.880;-0.518;2023-08-12T12:00:07;100344.22;;;22.31;48.65
39435;BME280;66825;51.880;-0.518;2023-08-12T12:02:49;100346.97;;;22.31;48.62
39435;BME280;66825;51.880;-0.518;2023-08-12T12:05:16;100323.50;;;22.21;48.60
39435;BME280;66825;51.880;-0.518;2023-08-12T12:07:42;100308.84;;;22.17;48.61
39435;BME280;66825;51.880;-0.518;2023-08-12T12:10:13;100335.22;;;22.30;48.68
39435;BME280;66825;51.880;-0.518;2023-08-12T12:12:40;100344.22;;;22.31;48.60
39435;BME280;66825;51.880;-0.518;2023-08-12T12:15:07;100247.88;;;21.69;48.73
39435;BME280;66825;51.880;-0.518;2023-08-12T12:17:32;100349.19;;;22.16;48.71
39435;BME280;66825;51.880;-0.518;2023-08-12T12:19:59;100353.59;;;22.30;48.68
39435;BME280;66825;51.880;-0.518;2023-08-12T12:22:29;100351.69;;;22.30;48.67
39435;BME280;66825;51.880;-0.518;2023-08-12T12:24:57;100336.34;;;22.29;48.71
39435;BME280;66825;51.880;-0.518;2023-08-12T12:27:24;100228.13;;;21.54;48.61
39435;BME280;66825;51.880;-0.518;2023-08-12T12:29:49;100241.78;;;21.63;48.75
39435;BME280;66825;51.880;-0.518;2023-08-12T12:32:18;100331.66;;;22.30;48.76
39435;BME280;66825;51.880;-0.518;2023-08-12T12:34:43;100333.59;;;22.29;48.47
39435;BME280;66825;51.880;-0.518;2023-08-12T12:37:09;100354.41;;;22.30;48.74
39435;BME280;66825;51.880;-0.518;2023-08-12T12:39:34;100334.25;;;22.26;48.94
39435;BME280;66825;51.880;-0.518;2023-08-12T12:41:59;100323.41;;;22.30;48.83